createdAt,value
2023-08-09T00:01:09.498Z,63.88
2023-08-09T00:03:37.249Z,64.00
2023-08-09T00:06:04.758Z,63.71
2023-08-09T00:08:32.153Z,63.50
2023-08-09T00:11:01.639Z,62.99
2023-08-09T00:13:29.180Z,63.50
2023-08-09T00:15:56.773Z,63.28
2023-08-09T00:18:24.328Z,62.98
2023-08-09T00:20:52.012Z,63.37
2023-08-09T00:23:19.558Z,63.10
2023-08-09T00:25:47.095Z,63.41
2023-08-09T00:28:16.147Z,63.52
2023-08-09T00:30:43.890Z,63.68
2023-08-09T00:33:11.578Z,63.77
2023-08-09T00:35:39.503Z,63.34
2023-08-09T00:38:07.613Z,63.10
2023-08-09T00:40:35.622Z,63.13
2023-08-09T00:43:03.362Z,63.63
2023-08-09T00:45:32.601Z,63.30
2023-08-09T00:48:01.233Z,64.07
2023-08-09T00:50:28.850Z,63.53
2023-08-09T00:52:57.771Z,63.11
2023-08-09T00:55:25.517Z,62.81
2023-08-09T00:57:54.222Z,63.01
2023-08-09T01:00:21.994Z,63.59
2023-08-09T01:02:51.342Z,63.01
2023-08-09T01:05:19.208Z,63.03
2023-08-09T01:07:51.625Z,62.95
2023-08-09T01:10:24.859Z,62.64
2023-08-09T01:12:57.430Z,62.51
2023-08-09T01:15:26.348Z,62.12
2023-08-09T01:17:57.023Z,61.17
2023-08-09T01:20:25.654Z,60.92
2023-08-09T01:23:00.727Z,61.35
2023-08-09T01:25:30.637Z,61.30
2023-08-09T01:27:59.517Z,58.56
2023-08-09T01:30:27.079Z,58.97
2023-08-09T01:32:55.564Z,61.31
2023-08-09T01:35:25.823Z,62.92
2023-08-09T01:37:57.954Z,62.59
2023-08-09T01:40:28.368Z,62.61
2023-08-09T01:42:59.075Z,62.23
2023-08-09T01:45:29.780Z,61.96
2023-08-09T01:47:57.565Z,62.65
2023-08-09T01:50:28.828Z,62.53
2023-08-09T01:52:57.395Z,63.13
2023-08-09T01:55:27.668Z,63.08
2023-08-09T01:57:55.118Z,63.35
2023-08-09T02:00:24.206Z,62.86
2023-08-09T02:02:54.656Z,62.25
2023-08-09T02:05:24.428Z,63.29
2023-08-09T02:07:52.963Z,62.81
2023-08-09T02:10:21.804Z,62.52
2023-08-09T02:12:50.855Z,62.49
2023-08-09T02:15:19.775Z,63.22
2023-08-09T02:17:49.687Z,62.82
2023-08-09T02:20:19.241Z,63.73
2023-08-09T02:22:47.415Z,63.65
2023-08-09T02:25:16.094Z,63.11
2023-08-09T02:27:44.636Z,62.41
2023-08-09T02:30:13.583Z,62.20
2023-08-09T02:32:41.682Z,62.08
2023-08-09T02:35:11.783Z,61.96
2023-08-09T02:37:40.361Z,61.85
2023-08-09T02:40:09.778Z,61.82
2023-08-09T02:42:38.376Z,62.06
2023-08-09T02:45:08.863Z,61.59
2023-08-09T02:47:36.917Z,61.64
2023-08-09T02:50:06.284Z,61.46
2023-08-09T02:52:37.011Z,61.42
2023-08-09T02:55:06.062Z,61.33
2023-08-09T02:57:34.320Z,61.20
2023-08-09T03:00:02.526Z,61.29
2023-08-09T03:02:31.304Z,61.00
2023-08-09T03:04:59.386Z,61.62
2023-08-09T03:07:26.967Z,61.53
2023-08-09T03:09:56.079Z,60.80
2023-08-09T03:12:23.730Z,60.76
2023-08-09T03:14:51.298Z,60.89
2023-08-09T03:17:18.926Z,60.70
2023-08-09T03:19:47.041Z,59.68
2023-08-09T03:22:14.586Z,60.11
2023-08-09T03:24:42.280Z,59.81
2023-08-09T03:27:11.306Z,59.73
2023-08-09T03:29:39.212Z,59.90
2023-08-09T03:32:06.991Z,59.88
2023-08-09T03:34:34.522Z,59.08
2023-08-09T03:37:03.476Z,58.68
2023-08-09T03:39:31.727Z,58.91
2023-08-09T03:41:59.351Z,58.13
2023-08-09T03:44:29.003Z,58.09
2023-08-09T03:46:56.535Z,58.38
2023-08-09T03:49:24.855Z,57.77
2023-08-09T03:51:52.474Z,58.29
2023-08-09T03:54:20.567Z,57.54
2023-08-09T03:56:48.160Z,57.80
2023-08-09T03:59:15.685Z,57.72
2023-08-09T04:01:44.972Z,57.74
2023-08-09T04:04:12.603Z,57.35
2023-08-09T04:06:40.185Z,56.93
2023-08-09T04:09:07.733Z,57.77
2023-08-09T04:11:35.866Z,56.84
2023-08-09T04:14:05.044Z,56.58
2023-08-09T04:16:32.747Z,57.31
2023-08-09T04:19:01.838Z,57.02
2023-08-09T04:21:29.862Z,57.28
2023-08-09T04:23:57.400Z,56.50
2023-08-09T04:26:25.046Z,56.88
2023-08-09T04:28:52.546Z,56.88
2023-08-09T04:31:20.175Z,57.40
2023-08-09T04:33:47.686Z,57.34
2023-08-09T04:36:16.783Z,57.05
2023-08-09T04:38:44.479Z,56.89
2023-08-09T04:41:11.984Z,56.43
2023-08-09T04:43:42.818Z,55.99
2023-08-09T04:46:10.859Z,55.86
2023-08-09T04:48:39.080Z,55.33
2023-08-09T04:51:06.602Z,55.29
2023-08-09T04:53:35.588Z,54.78
2023-08-09T04:56:03.923Z,55.41
2023-08-09T04:58:31.696Z,55.06
2023-08-09T05:00:59.563Z,55.39
2023-08-09T05:03:27.170Z,55.66
2023-08-09T05:05:54.676Z,55.04
2023-08-09T05:08:22.163Z,55.55
2023-08-09T05:10:51.531Z,55.16
2023-08-09T05:13:19.465Z,55.78
2023-08-09T05:15:46.994Z,55.19
2023-08-09T05:18:14.548Z,55.51
2023-08-09T05:20:42.207Z,54.84
2023-08-09T05:23:11.411Z,54.77
2023-08-09T05:25:40.133Z,55.12
2023-08-09T05:28:09.122Z,55.82
2023-08-09T05:30:36.810Z,56.50
2023-08-09T05:33:05.415Z,56.62
2023-08-09T05:35:33.151Z,56.01
2023-08-09T05:38:00.657Z,55.24
2023-08-09T05:40:28.206Z,55.32
2023-08-09T05:42:55.816Z,55.53
2023-08-09T05:45:25.066Z,55.14
2023-08-09T05:47:52.602Z,54.53
2023-08-09T05:50:20.292Z,54.45
2023-08-09T05:52:47.779Z,55.07
2023-08-09T05:55:15.326Z,54.95
2023-08-09T05:57:42.843Z,54.99
2023-08-09T06:00:11.128Z,53.83
2023-08-09T06:02:40.406Z,54.31
2023-08-09T06:05:09.004Z,54.48
2023-08-09T06:07:36.504Z,54.11
2023-08-09T06:10:04.782Z,53.66
2023-08-09T06:12:32.249Z,54.51
2023-08-09T06:14:59.885Z,53.77
2023-08-09T06:17:27.469Z,54.62
2023-08-09T06:19:56.590Z,54.78
2023-08-09T06:22:24.274Z,53.85
2023-08-09T06:24:52.368Z,53.97
2023-08-09T06:27:20.001Z,53.97
2023-08-09T06:29:47.508Z,53.85
2023-08-09T06:32:15.035Z,52.75
2023-08-09T06:34:42.551Z,52.82
2023-08-09T06:37:11.521Z,52.68
2023-08-09T06:39:39.051Z,52.12
2023-08-09T06:42:07.012Z,51.78
2023-08-09T06:44:36.264Z,52.71
2023-08-09T06:47:04.158Z,52.23
2023-08-09T06:49:31.946Z,51.12
2023-08-09T06:51:59.439Z,51.85
2023-08-09T06:54:29.084Z,51.53
2023-08-09T06:56:56.858Z,51.30
2023-08-09T06:59:24.452Z,51.49
2023-08-09T07:01:52.035Z,50.95
2023-08-09T07:04:20.071Z,51.20
2023-08-09T07:06:47.804Z,51.48
2023-08-09T07:09:15.953Z,50.58
2023-08-09T07:11:45.732Z,50.26
2023-08-09T07:14:13.385Z,48.96
2023-08-09T07:16:42.469Z,49.07
2023-08-09T07:19:10.032Z,49.23
2023-08-09T07:21:37.531Z,48.41
2023-08-09T07:24:05.656Z,48.98
2023-08-09T07:26:33.403Z,49.07
2023-08-09T07:29:02.690Z,49.46
2023-08-09T07:31:30.398Z,50.02
2023-08-09T07:33:57.942Z,49.21
2023-08-09T07:36:27.829Z,49.19
2023-08-09T07:38:55.802Z,49.72
2023-08-09T07:41:23.295Z,49.36
2023-08-09T07:43:50.913Z,50.31
2023-08-09T07:46:20.102Z,49.21
2023-08-09T07:48:47.723Z,49.19
2023-08-09T07:51:15.767Z,48.96
2023-08-09T07:53:46.238Z,49.86
2023-08-09T07:56:14.272Z,47.67
2023-08-09T07:58:41.811Z,47.59
2023-08-09T08:01:09.383Z,47.82
2023-08-09T08:03:38.536Z,48.33
2023-08-09T08:06:06.184Z,48.25
2023-08-09T08:08:33.868Z,47.97
2023-08-09T08:11:01.374Z,46.75
2023-08-09T08:13:28.954Z,47.63
2023-08-09T08:15:56.502Z,46.98
2023-08-09T08:18:24.214Z,46.95
2023-08-09T08:20:53.336Z,47.98
2023-08-09T08:23:20.884Z,47.70
2023-08-09T08:25:48.455Z,47.32
2023-08-09T08:28:15.954Z,47.28
2023-08-09T08:30:43.797Z,46.87
2023-08-09T08:33:11.371Z,46.68
2023-08-09T08:35:39.078Z,47.30
2023-08-09T08:38:08.062Z,46.85
2023-08-09T08:40:35.857Z,47.16
2023-08-09T08:43:03.734Z,47.36
2023-08-09T08:45:31.353Z,46.91
2023-08-09T08:47:59.423Z,47.46
2023-08-09T08:50:27.881Z,47.23
2023-08-09T08:52:56.499Z,46.56
2023-08-09T08:55:25.827Z,47.02
2023-08-09T08:57:53.662Z,45.41
2023-08-09T09:00:27.565Z,45.29
2023-08-09T09:02:57.130Z,46.29
2023-08-09T09:05:25.096Z,45.52
2023-08-09T09:07:53.244Z,45.78
2023-08-09T09:10:22.451Z,45.15
2023-08-09T09:12:52.638Z,44.56
2023-08-09T09:15:20.397Z,44.44
2023-08-09T09:17:48.325Z,44.70
2023-08-09T09:20:17.553Z,45.44
2023-08-09T09:22:45.041Z,45.33
2023-08-09T09:25:16.640Z,46.20
2023-08-09T09:27:44.419Z,45.87
2023-08-09T09:30:13.609Z,45.05
2023-08-09T09:32:54.723Z,45.54
2023-08-09T09:35:23.620Z,43.47
2023-08-09T09:37:52.185Z,44.66
2023-08-09T09:40:23.086Z,43.95
2023-08-09T09:42:52.728Z,44.28
2023-08-09T09:45:23.793Z,43.81
2023-08-09T09:47:51.893Z,44.22
2023-08-09T09:50:22.821Z,43.19
2023-08-09T09:52:51.083Z,43.48
2023-08-09T09:55:19.422Z,43.84
2023-08-09T09:57:47.092Z,42.86
2023-08-09T10:00:15.272Z,42.54
2023-08-09T10:02:46.763Z,43.12
2023-08-09T10:05:17.023Z,43.90
2023-08-09T10:07:44.959Z,42.90
2023-08-09T10:10:14.613Z,42.91
2023-08-09T10:12:45.124Z,42.20
2023-08-09T10:15:14.849Z,43.31
2023-08-09T10:17:47.006Z,42.21
2023-08-09T10:20:16.706Z,43.74
2023-08-09T10:22:46.736Z,42.36
2023-08-09T10:25:14.462Z,42.96
2023-08-09T10:27:52.767Z,42.77
2023-08-09T10:30:25.574Z,42.58
2023-08-09T10:32:55.779Z,42.20
2023-08-09T10:35:47.850Z,42.85
2023-08-09T10:38:18.567Z,42.14
2023-08-09T10:40:51.624Z,42.83
2023-08-09T10:43:20.305Z,42.93
2023-08-09T10:45:49.001Z,42.86
2023-08-09T10:48:25.644Z,43.08
2023-08-09T10:51:19.761Z,41.88
2023-08-09T10:53:57.282Z,41.89
2023-08-09T10:56:33.093Z,42.89
2023-08-09T10:59:07.709Z,41.71
2023-08-09T11:01:35.720Z,41.87
2023-08-09T11:04:08.364Z,41.61
2023-08-09T11:06:39.432Z,41.11
2023-08-09T11:09:09.650Z,42.42
2023-08-09T11:11:38.104Z,42.21
2023-08-09T11:14:06.553Z,41.92
2023-08-09T11:16:34.357Z,42.72
2023-08-09T11:19:09.231Z,42.86
2023-08-09T11:21:42.585Z,42.53
2023-08-09T11:24:10.855Z,42.76
2023-08-09T11:26:39.719Z,42.73
2023-08-09T11:29:07.862Z,41.50
2023-08-09T11:31:39.775Z,41.27
2023-08-09T11:34:08.746Z,40.68
2023-08-09T11:36:36.314Z,41.37
2023-08-09T11:39:05.209Z,41.47
2023-08-09T11:41:42.571Z,40.74
2023-08-09T11:44:10.673Z,40.69
2023-08-09T11:46:38.282Z,41.00
2023-08-09T11:49:06.380Z,40.64
2023-08-09T11:51:37.819Z,40.87
2023-08-09T11:54:09.866Z,40.66
2023-08-09T11:56:38.471Z,40.82
2023-08-09T11:59:08.497Z,40.64
2023-08-09T12:01:38.616Z,40.58
2023-08-09T12:04:08.654Z,40.50
2023-08-09T12:06:39.885Z,40.09
2023-08-09T12:09:29.916Z,39.56
2023-08-09T12:12:03.290Z,39.53
2023-08-09T12:14:31.120Z,40.03
2023-08-09T12:16:58.744Z,39.90
2023-08-09T12:19:27.199Z,41.12
2023-08-09T12:21:56.944Z,39.96
2023-08-09T12:24:24.113Z,39.84
2023-08-09T12:26:51.793Z,39.92
2023-08-09T12:29:19.507Z,39.54
2023-08-09T12:31:47.174Z,38.92
2023-08-09T12:34:14.741Z,39.46
2023-08-09T12:36:42.755Z,39.51
2023-08-09T12:39:12.320Z,38.90
2023-08-09T12:41:39.559Z,38.40
2023-08-09T12:44:07.893Z,38.05
2023-08-09T12:46:36.262Z,39.45
2023-08-09T12:49:05.131Z,38.60
2023-08-09T12:51:33.161Z,38.40
2023-08-09T12:54:00.906Z,38.27
2023-08-09T12:59:02.443Z,38.32
2023-08-09T13:01:30.051Z,38.05
2023-08-09T13:03:57.726Z,38.79
2023-08-09T13:06:25.572Z,38.57
2023-08-09T13:08:53.216Z,39.00
2023-08-09T13:11:21.026Z,39.14
2023-08-09T13:13:50.345Z,38.49
2023-08-09T13:16:17.924Z,39.05
2023-08-09T13:18:45.509Z,38.66
2023-08-09T13:21:14.926Z,38.68
2023-08-09T13:23:43.967Z,38.70
2023-08-09T13:26:11.772Z,38.22
2023-08-09T13:28:39.508Z,39.70
2023-08-09T13:31:09.817Z,40.96
2023-08-09T13:33:38.132Z,39.73
2023-08-09T13:36:06.220Z,38.77
2023-08-09T13:38:35.200Z,38.63
2023-08-09T13:41:02.808Z,38.16
2023-08-09T13:43:31.095Z,38.56
2023-08-09T13:45:59.967Z,38.37
2023-08-09T13:48:29.364Z,38.41
2023-08-09T13:50:56.924Z,38.70
2023-08-09T13:53:24.661Z,39.39
2023-08-09T13:55:52.571Z,38.44
2023-08-09T13:58:20.339Z,39.02
2023-08-09T14:00:50.400Z,38.85
2023-08-09T14:03:18.510Z,39.07
2023-08-09T14:05:47.855Z,39.19
2023-08-09T14:08:15.388Z,40.59
2023-08-09T14:10:43.001Z,40.43
2023-08-09T14:13:10.738Z,40.13
2023-08-09T14:15:38.351Z,39.54
2023-08-09T14:18:08.660Z,39.36
2023-08-09T14:20:36.974Z,40.22
2023-08-09T14:23:06.926Z,39.86
2023-08-09T14:25:34.527Z,40.42
2023-08-09T14:28:02.172Z,40.07
2023-08-09T14:30:29.922Z,40.44
2023-08-09T14:32:57.537Z,40.40
2023-08-09T14:35:25.206Z,41.21
2023-08-09T14:37:52.934Z,40.74
2023-08-09T14:40:22.154Z,41.21
2023-08-09T14:42:49.673Z,40.85
2023-08-09T14:45:17.217Z,41.20
2023-08-09T14:47:44.880Z,40.89
2023-08-09T14:50:12.424Z,42.63
2023-08-09T14:52:39.913Z,42.42
2023-08-09T14:55:08.631Z,42.20
2023-08-09T14:57:37.644Z,41.74
2023-08-09T15:00:06.237Z,41.87
2023-08-09T15:02:33.855Z,42.28
2023-08-09T15:05:01.586Z,41.82
2023-08-09T15:07:29.214Z,42.38
2023-08-09T15:09:56.798Z,42.44
2023-08-09T15:12:24.388Z,41.73
2023-08-09T15:14:53.505Z,42.51
2023-08-09T15:17:25.401Z,42.60
2023-08-09T15:19:54.223Z,42.63
2023-08-09T15:22:23.319Z,42.85
2023-08-09T15:24:51.296Z,42.11
2023-08-09T15:27:18.886Z,42.24
2023-08-09T15:29:46.388Z,43.06
2023-08-09T15:32:15.349Z,42.89
2023-08-09T15:34:42.937Z,42.44
2023-08-09T15:37:10.455Z,42.89
2023-08-09T15:39:38.000Z,42.37
2023-08-09T15:42:17.121Z,43.05
2023-08-09T15:44:46.557Z,43.44
2023-08-09T15:47:15.705Z,42.79
2023-08-09T15:49:43.332Z,43.21
2023-08-09T15:52:10.824Z,43.08
2023-08-09T15:54:38.444Z,42.74
2023-08-09T15:57:06.487Z,42.95
2023-08-09T15:59:34.323Z,43.16
2023-08-09T16:02:01.985Z,44.19
2023-08-09T16:04:31.139Z,43.21
2023-08-09T16:06:58.768Z,43.98
2023-08-09T16:09:26.252Z,43.98
2023-08-09T16:11:54.107Z,43.93
2023-08-09T16:14:21.651Z,44.88
2023-08-09T16:16:49.351Z,43.90
2023-08-09T16:19:19.926Z,46.29
2023-08-09T16:21:49.150Z,47.07
2023-08-09T16:24:16.815Z,46.37
2023-08-09T16:26:44.361Z,46.61
2023-08-09T16:29:11.897Z,45.19
2023-08-09T16:31:39.492Z,46.44
2023-08-09T16:34:07.126Z,46.33
2023-08-09T16:36:34.910Z,46.08
2023-08-09T16:39:04.462Z,46.12
2023-08-09T16:41:31.592Z,46.77
2023-08-09T16:43:59.076Z,47.24
2023-08-09T16:46:26.805Z,46.46
2023-08-09T16:48:54.887Z,45.77
2023-08-09T16:51:22.434Z,46.04
2023-08-09T16:53:49.960Z,46.24
2023-08-09T16:56:18.900Z,46.61
2023-08-09T16:58:46.441Z,46.63
2023-08-09T17:01:14.321Z,45.83
2023-08-09T17:03:41.945Z,46.09
2023-08-09T17:06:09.562Z,46.06
2023-08-09T17:08:37.098Z,47.50
2023-08-09T17:11:04.655Z,46.66
2023-08-09T17:13:34.331Z,45.98
2023-08-09T17:16:01.527Z,46.02
2023-08-09T17:18:29.252Z,45.95
2023-08-09T17:20:56.804Z,46.27
2023-08-09T17:23:24.431Z,46.25
2023-08-09T17:25:52.504Z,46.23
2023-08-09T17:28:20.056Z,46.00
2023-08-09T17:30:49.619Z,45.86
2023-08-09T17:33:17.429Z,45.91
2023-08-09T17:35:45.409Z,46.06
2023-08-09T17:38:13.757Z,46.17
2023-08-09T17:40:41.366Z,47.15
2023-08-09T17:43:08.853Z,47.31
2023-08-09T17:45:38.372Z,46.86
2023-08-09T17:48:07.390Z,46.57
2023-08-09T17:50:35.245Z,46.82
2023-08-09T17:53:02.936Z,46.86
2023-08-09T17:55:30.654Z,47.65
2023-08-09T17:57:58.204Z,46.98
2023-08-09T18:00:25.981Z,47.05
2023-08-09T18:02:54.525Z,46.92
2023-08-09T18:05:23.766Z,47.44
2023-08-09T18:07:51.421Z,47.08
2023-08-09T18:10:19.180Z,47.54
2023-08-09T18:12:46.813Z,47.51
2023-08-09T18:15:14.435Z,47.12
2023-08-09T18:17:41.959Z,47.56
2023-08-09T18:20:10.049Z,46.94
2023-08-09T18:22:39.482Z,47.72
2023-08-09T18:25:07.533Z,47.34
2023-08-09T18:27:35.358Z,47.49
2023-08-09T18:30:04.097Z,48.44
2023-08-09T18:32:31.684Z,47.56
2023-08-09T18:35:14.999Z,48.62
2023-08-09T18:37:44.406Z,48.77
2023-08-09T18:40:12.603Z,48.52
2023-08-09T18:42:40.125Z,48.25
2023-08-09T18:45:09.262Z,48.97
2023-08-09T18:47:36.838Z,48.31
2023-08-09T18:50:04.555Z,48.54
2023-08-09T18:52:32.277Z,48.89
2023-08-09T18:55:01.263Z,48.89
2023-08-09T18:57:28.787Z,48.70
2023-08-09T18:59:56.319Z,48.93
2023-08-09T19:02:23.834Z,48.63
2023-08-09T19:04:51.509Z,48.33
2023-08-09T19:07:19.036Z,48.26
2023-08-09T19:09:46.973Z,48.01
2023-08-09T19:12:15.964Z,48.58
2023-08-09T19:14:43.466Z,48.23
2023-08-09T19:17:11.246Z,48.52
2023-08-09T19:19:38.744Z,47.55
2023-08-09T19:22:06.425Z,47.73
2023-08-09T19:24:34.023Z,48.07
2023-08-09T19:27:01.796Z,48.14
2023-08-09T19:29:31.026Z,48.22
2023-08-09T19:31:58.829Z,47.99
2023-08-09T19:34:26.352Z,47.78
2023-08-09T19:36:53.829Z,48.58
2023-08-09T19:39:21.375Z,47.93
2023-08-09T19:41:48.956Z,47.94
2023-08-09T19:44:16.557Z,48.17
2023-08-09T19:46:45.676Z,47.61
2023-08-09T19:49:13.198Z,48.73
2023-08-09T19:51:40.745Z,47.68
2023-08-09T19:54:08.273Z,48.18
2023-08-09T19:56:35.795Z,48.15
2023-08-09T19:59:03.494Z,48.54
2023-08-09T20:01:31.152Z,48.71
2023-08-09T20:04:00.114Z,48.49
2023-08-09T20:06:27.608Z,48.59
2023-08-09T20:08:55.265Z,49.15
2023-08-09T20:11:22.806Z,48.84
2023-08-09T20:13:50.267Z,48.50
2023-08-09T20:16:17.823Z,48.07
2023-08-09T20:18:45.384Z,48.49
2023-08-09T20:21:14.388Z,49.17
2023-08-09T20:23:42.062Z,48.75
2023-08-09T20:26:09.692Z,48.23
2023-08-09T20:28:37.282Z,48.46
2023-08-09T20:31:04.857Z,49.16
2023-08-09T20:33:32.416Z,49.13
2023-08-09T20:36:00.154Z,48.33
2023-08-09T20:38:29.139Z,48.96
2023-08-09T20:40:59.224Z,48.56
2023-08-09T20:43:27.439Z,49.43
2023-08-09T20:45:54.999Z,48.89
2023-08-09T20:48:22.685Z,49.47
2023-08-09T20:50:50.296Z,48.86
2023-08-09T20:53:17.977Z,49.46
2023-08-09T20:55:47.115Z,49.19
2023-08-09T20:58:14.648Z,49.58
2023-08-09T21:00:42.512Z,49.50
2023-08-09T21:03:10.115Z,50.12
2023-08-09T21:05:37.858Z,49.99
2023-08-09T21:08:06.166Z,51.67
2023-08-09T21:10:33.688Z,51.77
2023-08-09T21:13:02.627Z,50.61
2023-08-09T21:15:30.131Z,51.63
2023-08-09T21:17:57.656Z,52.00
2023-08-09T21:20:25.500Z,51.82
2023-08-09T21:27:54.683Z,52.05
2023-08-09T21:30:23.652Z,52.20
2023-08-09T21:32:51.223Z,52.22
2023-08-09T21:35:18.729Z,51.36
2023-08-09T21:37:46.256Z,52.12
2023-08-09T21:40:14.010Z,51.59
2023-08-09T21:42:41.526Z,51.54
2023-08-09T21:45:10.398Z,51.38
2023-08-09T21:47:39.816Z,51.25
2023-08-09T21:50:07.475Z,52.09
2023-08-09T21:52:34.969Z,51.97
2023-08-09T21:55:02.476Z,51.73
2023-08-09T21:57:29.951Z,51.54
2023-08-09T21:59:57.465Z,52.12
2023-08-09T22:02:25.324Z,51.66
2023-08-09T22:04:54.346Z,51.52
2023-08-09T22:07:21.931Z,51.93
2023-08-09T22:09:49.412Z,51.73
2023-08-09T22:12:17.080Z,52.14
2023-08-09T22:14:44.589Z,52.69
2023-08-09T22:17:12.083Z,52.18
2023-08-09T22:19:40.256Z,52.22
2023-08-09T22:22:14.157Z,52.45
2023-08-09T22:24:42.892Z,51.66
2023-08-09T22:27:10.390Z,52.19
2023-08-09T22:29:38.531Z,51.44
2023-08-09T22:32:06.773Z,52.36
2023-08-09T22:34:34.476Z,52.10
2023-08-09T22:37:01.981Z,52.01
2023-08-09T22:39:30.960Z,52.25
2023-08-09T22:41:58.459Z,51.29
2023-08-09T22:44:26.481Z,51.57
2023-08-09T22:46:54.011Z,51.44
2023-08-09T22:49:22.086Z,52.20
2023-08-09T22:51:49.746Z,51.59
2023-08-09T22:54:17.260Z,52.06
2023-08-09T22:56:46.292Z,52.37
2023-08-09T22:59:13.934Z,51.72
2023-08-09T23:01:41.542Z,51.82
2023-08-09T23:04:09.352Z,52.68
2023-08-09T23:06:37.791Z,51.87
2023-08-09T23:09:07.474Z,52.14
2023-08-09T23:11:35.193Z,52.50
2023-08-09T23:14:04.582Z,51.87
2023-08-09T23:16:32.480Z,52.44
2023-08-09T23:19:00.026Z,52.15
2023-08-09T23:21:27.812Z,52.30
2023-08-09T23:23:55.326Z,52.17
2023-08-09T23:26:22.840Z,51.33
2023-08-09T23:28:50.428Z,50.94
2023-08-09T23:31:19.566Z,50.97
2023-08-09T23:33:47.097Z,51.29
2023-08-09T23:36:15.065Z,50.79
2023-08-09T23:38:43.543Z,50.93
2023-08-09T23:41:11.061Z,51.55
2023-08-09T23:43:38.661Z,51.78
2023-08-09T23:46:06.364Z,50.91
2023-08-09T23:48:35.313Z,51.87
2023-08-09T23:51:02.793Z,50.83
2023-08-09T23:53:30.284Z,51.53
2023-08-09T23:55:57.842Z,51.14
2023-08-09T23:58:25.330Z,51.32
